Time;durP1;ratioP1;P1;durP2;ratioP2;P2;SDS_P1;SDS_P2;PMS_P1;PMS_P2;Temp;Humidity;BMP_temperature;BMP_pressure;BME280_temperature;BME280_humidity;BME280_pressure;Samples;Min_cycle;Max_cycle;Signal;HPM_P1;HPM_P2
2020/12/12 00:00:01;;;;;;;16.83;13.10;;;1.90;92.80;;;;;;5111310;28;20441;-77
2020/12/12 00:02:31;;;;;;;16.67;12.98;;;1.90;92.80;;;;;;5096896;28;20420;-77
2020/12/12 00:05:02;;;;;;;16.88;13.10;;;1.90;92.90;;;;;;5111252;28;20429;-77
2020/12/12 00:07:29;;;;;;;17.20;13.50;;;1.90;92.90;;;;;;5114558;28;20408;-77
2020/12/12 00:09:55;;;;;;;17.98;14.02;;;1.90;92.90;;;;;;5093145;28;20407;-77
2020/12/12 00:12:22;;;;;;;17.05;12.82;;;1.90;93.00;;;;;;5115219;28;20400;-77
2020/12/12 00:14:51;;;;;;;16.60;13.15;;;1.90;92.90;;;;;;5114343;28;20856;-77
2020/12/12 00:17:20;;;;;;;16.65;13.02;;;1.90;92.90;;;;;;5110749;28;20455;-76
2020/12/12 00:19:48;;;;;;;16.45;13.23;;;1.90;92.90;;;;;;5114303;28;20457;-77
2020/12/12 00:22:17;;;;;;;16.40;13.35;;;1.90;93.00;;;;;;5093201;28;20529;-77
2020/12/12 00:24:44;;;;;;;16.02;13.10;;;1.90;93.00;;;;;;5113966;28;20427;-77
2020/12/12 00:27:10;;;;;;;16.58;13.48;;;1.90;93.10;;;;;;5110566;28;20420;-77
2020/12/12 00:29:39;;;;;;;16.90;13.52;;;1.90;93.20;;;;;;5116842;27;20426;-77
2020/12/12 00:32:08;;;;;;;15.90;13.10;;;1.90;93.20;;;;;;5102272;28;20537;-77
2020/12/12 00:34:34;;;;;;;17.52;13.48;;;2.00;92.90;;;;;;5096899;28;20426;-77
2020/12/12 00:37:01;;;;;;;17.38;13.57;;;2.00;93.00;;;;;;5092919;28;20767;-77
2020/12/12 00:39:29;;;;;;;17.55;13.32;;;1.90;93.10;;;;;;5113935;28;20470;-77
2020/12/12 00:41:58;;;;;;;18.70;14.38;;;2.00;93.10;;;;;;5092859;28;21386;-77
2020/12/12 00:44:24;;;;;;;19.63;15.25;;;2.00;93.20;;;;;;5113913;28;20462;-77
2020/12/12 00:46:51;;;;;;;19.52;15.13;;;2.00;93.60;;;;;;5093012;28;20401;-77
2020/12/12 00:49:20;;;;;;;19.30;14.90;;;2.10;93.50;;;;;;5096482;28;20417;-77
2020/12/12 00:51:48;;;;;;;20.25;14.93;;;2.00;93.40;;;;;;5095923;28;20469;-77
2020/12/12 00:54:14;;;;;;;18.52;14.55;;;2.10;93.40;;;;;;5092400;28;20400;-76
2020/12/12 00:56:43;;;;;;;19.87;14.83;;;2.00;93.40;;;;;;5112323;28;20455;-77
2020/12/12 00:59:09;;;;;;;19.63;14.20;;;2.10;93.60;;;;;;5115666;27;20398;-77
2020/12/12 01:01:36;;;;;;;18.38;14.50;;;2.10;93.40;;;;;;5116222;27;20406;-77
2020/12/12 01:04:07;;;;;;;19.02;13.85;;;2.00;93.40;;;;;;5100619;28;20864;-77
2020/12/12 01:06:36;;;;;;;18.20;13.68;;;2.00;93.30;;;;;;5113181;28;20823;-77
2020/12/12 01:09:05;;;;;;;17.67;13.60;;;2.00;93.50;;;;;;5091987;28;20408;-77
2020/12/12 01:11:32;;;;;;;18.80;13.80;;;2.00;93.40;;;;;;5113411;28;20804;-77
2020/12/12 01:14:03;;;;;;;16.92;13.25;;;2.10;93.20;;;;;;5108814;28;20412;-77
2020/12/12 01:16:29;;;;;;;16.80;13.10;;;2.00;93.00;;;;;;5095295;28;20455;-77
2020/12/12 01:18:55;;;;;;;16.23;12.75;;;2.00;93.10;;;;;;5092116;28;20835;-77
2020/12/12 01:21:22;;;;;;;16.40;12.90;;;2.00;92.90;;;;;;5112871;28;20396;-77
2020/12/12 01:23:53;;;;;;;17.02;12.93;;;2.00;93.00;;;;;;5112062;28;20486;-76
2020/12/12 01:26:20;;;;;;;17.00;12.80;;;2.00;93.10;;;;;;5074865;28;20536;-76
2020/12/12 01:28:47;;;;;;;17.00;13.55;;;1.90;93.20;;;;;;5075228;28;20410;-77
2020/12/12 01:31:14;;;;;;;16.52;13.07;;;2.00;93.20;;;;;;5088920;28;20440;-77
2020/12/12 01:33:41;;;;;;;16.17;12.20;;;1.90;93.20;;;;;;5113058;28;20432;-77
2020/12/12 01:36:10;;;;;;;15.18;12.43;;;2.00;93.00;;;;;;5109533;28;20429;-77
2020/12/12 01:38:36;;;;;;;16.50;12.27;;;2.00;92.60;;;;;;5113231;28;20457;-77
2020/12/12 01:41:03;;;;;;;15.48;12.35;;;2.10;92.60;;;;;;5109168;28;20432;-77
2020/12/12 01:43:30;;;;;;;15.85;12.77;;;2.00;92.60;;;;;;5095022;28;20437;-76
2020/12/12 01:45:57;;;;;;;15.88;12.90;;;2.00;92.80;;;;;;5109307;28;20439;-77
2020/12/12 01:48:27;;;;;;;16.63;13.13;;;1.90;92.90;;;;;;5112945;28;20518;-77
2020/12/12 01:50:53;;;;;;;16.77;12.88;;;1.90;93.00;;;;;;5109539;28;20456;-77
2020/12/12 01:53:20;;;;;;;18.25;13.50;;;1.90;93.00;;;;;;5102180;28;20401;-77
2020/12/12 01:55:48;;;;;;;17.20;13.63;;;1.90;92.90;;;;;;5090729;28;21063;-77
2020/12/12 01:58:19;;;;;;;15.80;12.37;;;1.90;93.00;;;;;;5112269;28;20435;-76
2020/12/12 02:00:48;;;;;;;16.55;12.90;;;1.90;92.90;;;;;;5094608;28;20462;-77
2020/12/12 02:03:20;;;;;;;17.08;13.30;;;1.90;93.00;;;;;;5091938;28;20400;-77
2020/12/12 02:05:47;;;;;;;16.67;13.13;;;1.90;93.00;;;;;;5112234;28;20420;-76
2020/12/12 02:08:23;;;;;;;17.67;13.88;;;1.90;93.20;;;;;;5090965;28;20404;-76
2020/12/12 02:10:50;;;;;;;16.92;13.30;;;1.90;92.90;;;;;;5112056;28;20455;-77
2020/12/12 02:13:18;;;;;;;17.90;13.80;;;1.90;92.90;;;;;;5090756;28;20392;-77
2020/12/12 02:15:45;;;;;;;16.67;13.15;;;1.90;93.00;;;;;;5094442;28;20400;-77
2020/12/12 02:18:21;;;;;;;17.52;13.60;;;1.90;93.00;;;;;;5090808;28;20408;-77
2020/12/12 02:20:55;;;;;;;19.07;13.67;;;2.00;92.90;;;;;;5094299;28;20447;-77
2020/12/12 02:23:22;;;;;;;17.17;13.30;;;1.90;93.00;;;;;;5090429;28;20432;-77
2020/12/12 02:25:50;;;;;;;17.65;13.90;;;1.90;92.80;;;;;;5111682;28;20745;-77
2020/12/12 02:28:22;;;;;;;16.10;12.65;;;2.00;92.80;;;;;;5108342;28;20400;-77
2020/12/12 02:30:49;;;;;;;17.38;12.80;;;2.00;92.90;;;;;;5094271;28;20830;-77
2020/12/12 02:33:18;;;;;;;17.57;13.30;;;2.00;93.00;;;;;;5108435;28;20432;-77
2020/12/12 02:35:45;;;;;;;17.07;13.10;;;2.00;93.00;;;;;;5093507;28;20405;-77
2020/12/12 02:38:12;;;;;;;17.33;13.43;;;2.00;93.10;;;;;;5108043;28;20487;-77
2020/12/12 02:40:39;;;;;;;17.95;13.30;;;2.00;93.00;;;;;;5111873;28;20408;-77
2020/12/12 02:43:12;;;;;;;19.83;13.97;;;2.00;92.80;;;;;;5094078;28;20771;-77
2020/12/12 02:45:46;;;;;;;17.33;13.38;;;2.00;92.90;;;;;;5107503;28;20470;-76
2020/12/12 02:48:15;;;;;;;16.50;13.00;;;2.00;93.00;;;;;;5093605;28;20474;-77
2020/12/12 02:50:43;;;;;;;16.88;12.90;;;2.00;93.00;;;;;;5090109;28;20427;-77
2020/12/12 02:53:12;;;;;;;16.58;13.20;;;2.00;92.60;;;;;;5093617;28;20473;-77
2020/12/12 02:55:41;;;;;;;21.35;13.40;;;1.90;92.60;;;;;;5090072;28;20404;-77
2020/12/12 02:58:07;;;;;;;17.43;13.37;;;1.90;92.60;;;;;;5111313;28;20465;-77
2020/12/12 03:00:33;;;;;;;17.20;12.70;;;1.90;92.50;;;;;;5095140;28;20910;-77
2020/12/12 03:03:00;;;;;;;16.52;12.35;;;1.90;92.40;;;;;;5093588;28;20481;-77
2020/12/12 03:05:29;;;;;;;15.85;12.48;;;1.90;92.50;;;;;;5090136;28;20396;-77
2020/12/12 03:07:55;;;;;;;17.63;12.77;;;1.80;92.60;;;;;;5111149;28;20435;-77
2020/12/12 03:10:22;;;;;;;15.98;12.50;;;1.90;92.60;;;;;;5089670;28;20438;-77
2020/12/12 03:12:50;;;;;;;16.13;12.05;;;1.90;92.60;;;;;;5110682;28;20466;-76
2020/12/12 03:15:17;;;;;;;15.93;12.85;;;1.90;92.60;;;;;;5089678;28;20436;-77
2020/12/12 03:17:45;;;;;;;15.73;12.40;;;1.90;92.70;;;;;;5093002;28;20477;-77
2020/12/12 03:20:14;;;;;;;15.70;12.30;;;1.90;92.80;;;;;;5093166;28;20403;-77
2020/12/12 03:22:41;;;;;;;15.85;12.30;;;1.90;92.80;;;;;;5107460;28;20458;-77
2020/12/12 03:25:08;;;;;;;15.23;11.98;;;1.90;92.70;;;;;;5110840;28;20439;-77
2020/12/12 03:27:36;;;;;;;16.50;12.30;;;1.90;92.60;;;;;;5089673;28;20503;-76
2020/12/12 03:30:03;;;;;;;17.02;12.70;;;1.90;92.50;;;;;;5110564;28;20880;-77
2020/12/12 03:32:33;;;;;;;16.92;13.20;;;1.90;92.40;;;;;;5094798;28;20487;-77
2020/12/12 03:35:00;;;;;;;17.88;13.10;;;1.90;92.60;;;;;;5072848;28;20485;-77
2020/12/12 03:37:27;;;;;;;17.45;12.98;;;1.80;92.70;;;;;;5105006;28;20469;-77
2020/12/12 03:39:53;;;;;;;17.15;12.50;;;1.80;92.60;;;;;;5113200;28;20409;-77
2020/12/12 03:42:20;;;;;;;17.88;13.65;;;1.80;92.60;;;;;;5103757;28;20404;-77
2020/12/12 03:44:46;;;;;;;16.70;12.23;;;1.80;92.70;;;;;;5110799;28;20881;-76
2020/12/12 03:47:13;;;;;;;17.10;12.70;;;1.80;92.50;;;;;;5089516;28;20436;-77
2020/12/12 03:49:39;;;;;;;17.05;12.40;;;1.80;92.60;;;;;;5093284;28;20660;-77
2020/12/12 03:52:08;;;;;;;16.30;12.68;;;1.70;92.50;;;;;;5110552;28;20428;-77
2020/12/12 03:54:34;;;;;;;16.27;12.07;;;1.70;92.70;;;;;;5089208;28;20477;-77
2020/12/12 03:57:02;;;;;;;15.95;12.30;;;1.70;92.90;;;;;;5092883;28;20485;-77
2020/12/12 03:59:28;;;;;;;16.03;12.43;;;1.80;92.80;;;;;;5089514;28;20444;-77
2020/12/12 04:01:54;;;;;;;15.18;12.10;;;1.80;92.80;;;;;;5110551;28;20404;-77
2020/12/12 04:04:21;;;;;;;15.63;11.95;;;1.70;92.70;;;;;;5096581;28;20400;-77
2020/12/12 04:06:47;;;;;;;17.63;13.27;;;1.70;92.80;;;;;;5110845;28;20451;-76
2020/12/12 04:09:14;;;;;;;16.02;12.55;;;1.80;92.90;;;;;;5081213;28;20773;-76
2020/12/12 04:11:40;;;;;;;17.40;13.15;;;1.80;92.90;;;;;;5072471;28;20434;-77
2020/12/12 04:14:07;;;;;;;16.50;12.73;;;1.70;92.90;;;;;;5075131;28;20901;-77
2020/12/12 04:16:34;;;;;;;16.60;12.47;;;1.70;93.00;;;;;;5092544;28;20926;-77
2020/12/12 04:19:01;;;;;;;17.08;12.60;;;1.80;92.90;;;;;;5089218;28;20478;-77
2020/12/12 04:21:29;;;;;;;16.45;12.68;;;1.80;92.80;;;;;;5092805;28;20404;-77
2020/12/12 04:23:56;;;;;;;17.42;13.45;;;1.80;93.00;;;;;;5092492;28;20561;-76
2020/12/12 04:26:24;;;;;;;16.70;12.80;;;1.80;93.00;;;;;;5088868;28;20415;-77
2020/12/12 04:28:53;;;;;;;18.63;12.43;;;1.80;92.90;;;;;;5110324;28;20710;-77
2020/12/12 04:31:19;;;;;;;16.38;12.88;;;1.80;92.90;;;;;;5107136;28;20412;-77
2020/12/12 04:33:48;;;;;;;17.07;12.77;;;1.80;92.90;;;;;;5114136;28;20410;-77
2020/12/12 04:36:17;;;;;;;17.10;12.88;;;1.80;92.90;;;;;;5110474;28;20419;-77
2020/12/12 04:38:43;;;;;;;17.60;12.68;;;1.80;93.10;;;;;;5114354;28;20439;-76
2020/12/12 04:41:11;;;;;;;16.35;13.18;;;1.80;92.80;;;;;;5110958;28;20404;-76
2020/12/12 04:43:42;;;;;;;16.80;13.05;;;1.80;93.00;;;;;;5096780;28;20401;-77
2020/12/12 04:46:08;;;;;;;18.70;13.63;;;1.80;93.20;;;;;;5092680;28;20400;-77
2020/12/12 04:48:35;;;;;;;18.83;14.30;;;1.80;93.40;;;;;;5096116;28;20427;-77
2020/12/12 04:51:03;;;;;;;17.93;13.60;;;1.90;93.40;;;;;;5110768;28;20416;-77
2020/12/12 04:53:33;;;;;;;19.35;14.48;;;1.80;93.30;;;;;;5113572;28;21009;-77
2020/12/12 04:56:03;;;;;;;17.80;13.73;;;1.90;93.20;;;;;;5110838;28;20392;-77
2020/12/12 04:58:32;;;;;;;18.38;14.20;;;1.90;93.10;;;;;;5113382;28;20414;-77
2020/12/12 05:01:01;;;;;;;19.52;14.75;;;1.90;93.20;;;;;;5092365;28;20476;-77
2020/12/12 05:03:30;;;;;;;19.30;14.90;;;1.90;93.20;;;;;;5109772;28;20408;-77
2020/12/12 05:05:56;;;;;;;19.17;14.60;;;1.90;93.30;;;;;;5095959;28;20408;-76
2020/12/12 05:08:23;;;;;;;22.25;16.35;;;1.90;93.10;;;;;;5092207;28;20465;-77
2020/12/12 05:10:51;;;;;;;33.25;22.33;;;1.90;93.20;;;;;;5112938;28;20920;-77
2020/12/12 05:13:20;;;;;;;29.92;19.98;;;2.00;93.20;;;;;;5097521;27;20410;-77
2020/12/12 05:15:48;;;;;;;28.33;19.95;;;1.90;93.20;;;;;;5075540;28;20418;-77
2020/12/12 05:18:15;;;;;;;28.10;19.67;;;1.90;93.30;;;;;;5082053;28;20420;-76
2020/12/12 05:20:42;;;;;;;24.73;17.65;;;1.90;93.40;;;;;;5095565;28;20392;-77
2020/12/12 05:23:16;;;;;;;21.35;16.08;;;1.90;93.50;;;;;;5092193;28;20455;-77
2020/12/12 05:25:44;;;;;;;23.75;16.65;;;2.00;93.30;;;;;;5094986;28;20404;-77
2020/12/12 05:28:13;;;;;;;25.33;18.40;;;1.90;93.30;;;;;;5091621;28;20408;-77
2020/12/12 05:30:42;;;;;;;25.05;17.73;;;1.90;93.00;;;;;;5112799;28;20929;-77
2020/12/12 05:33:14;;;;;;;23.50;16.90;;;2.00;92.50;;;;;;5091830;28;20469;-77
2020/12/12 05:35:41;;;;;;;24.27;16.65;;;2.00;92.40;;;;;;5094954;28;20440;-77
2020/12/12 05:38:11;;;;;;;25.90;18.10;;;2.00;92.80;;;;;;5112736;28;20459;-77
2020/12/12 05:40:51;;;;;;;25.63;18.08;;;1.90;92.60;;;;;;5092497;28;20428;-77
2020/12/12 05:43:17;;;;;;;24.53;17.93;;;1.90;92.70;;;;;;5112157;28;20457;-77
2020/12/12 05:45:43;;;;;;;26.45;17.67;;;1.80;92.80;;;;;;5091523;28;20412;-77
2020/12/12 05:48:11;;;;;;;25.48;18.45;;;1.80;92.90;;;;;;5112467;28;20408;-77
2020/12/12 05:50:38;;;;;;;27.67;18.65;;;1.80;93.10;;;;;;5108083;28;20492;-76
2020/12/12 05:53:07;;;;;;;24.80;18.37;;;1.80;93.00;;;;;;5094480;28;20462;-76
2020/12/12 05:55:34;;;;;;;26.08;19.00;;;1.80;92.90;;;;;;5109411;28;20482;-75
2020/12/12 05:58:04;;;;;;;27.27;19.20;;;1.90;92.80;;;;;;5094031;28;20495;-76
2020/12/12 06:00:33;;;;;;;26.35;18.50;;;1.90;92.50;;;;;;5090804;28;20542;-76
2020/12/12 06:03:41;;;;;;;25.92;19.15;;;1.90;91.90;;;;;;5097205;28;20941;-76
2020/12/12 06:06:09;;;;;;;26.15;18.88;;;1.80;91.90;;;;;;5091027;28;20396;-76
2020/12/12 06:08:37;;;;;;;26.88;19.58;;;1.80;92.00;;;;;;5111228;28;20404;-75
2020/12/12 06:11:08;;;;;;;26.35;18.48;;;1.80;92.10;;;;;;5101053;28;20967;-76
2020/12/12 06:13:36;;;;;;;25.35;19.00;;;1.80;92.00;;;;;;5091548;28;20414;-76
2020/12/12 06:16:09;;;;;;;26.98;19.33;;;1.80;91.70;;;;;;5081862;28;20424;-76
2020/12/12 06:18:47;;;;;;;27.13;19.40;;;1.80;91.80;;;;;;5094391;28;20430;-76
2020/12/12 06:21:16;;;;;;;28.55;19.40;;;1.70;91.80;;;;;;5090916;28;20639;-76
2020/12/12 06:23:45;;;;;;;27.70;19.00;;;1.70;91.70;;;;;;5094169;28;20408;-76
2020/12/12 06:26:15;;;;;;;27.85;19.73;;;1.70;91.80;;;;;;5107702;28;20469;-76
2020/12/12 06:28:43;;;;;;;26.80;19.05;;;1.70;91.90;;;;;;5094637;28;20434;-76
2020/12/12 06:31:12;;;;;;;27.40;19.65;;;1.70;91.90;;;;;;5093973;28;20496;-76
2020/12/12 06:33:52;;;;;;;30.77;19.73;;;1.70;91.90;;;;;;5108844;28;20481;-76
2020/12/12 06:36:31;;;;;;;27.60;19.48;;;1.60;92.10;;;;;;5094063;28;20471;-76
2020/12/12 06:39:24;;;;;;;25.75;18.92;;;1.70;91.90;;;;;;5111197;28;20448;-76
2020/12/12 06:41:59;;;;;;;29.05;18.65;;;1.80;91.50;;;;;;5091505;28;20400;-76
2020/12/12 06:44:38;;;;;;;24.43;18.33;;;1.80;91.50;;;;;;5111230;28;20490;-76
2020/12/12 06:47:05;;;;;;;25.90;18.58;;;1.90;91.50;;;;;;5111308;28;20473;-76
2020/12/12 06:49:34;;;;;;;23.87;18.10;;;1.80;91.50;;;;;;5109822;28;20452;-76
2020/12/12 06:52:01;;;;;;;24.42;18.02;;;1.80;91.50;;;;;;5111386;28;20408;-76
2020/12/12 06:54:27;;;;;;;51.10;31.08;;;1.80;91.60;;;;;;5106749;28;20420;-76
2020/12/12 06:56:54;;;;;;;59.00;33.30;;;1.80;91.50;;;;;;5092926;28;20420;-75
2020/12/12 06:59:36;;;;;;;64.47;35.13;;;1.70;91.60;;;;;;5107687;28;20910;-75
2020/12/12 07:02:07;;;;;;;64.60;33.78;;;1.70;91.70;;;;;;5093408;28;20961;-75
2020/12/12 07:04:41;;;;;;;61.33;32.88;;;1.70;91.80;;;;;;5108030;28;20469;-76
2020/12/12 07:07:11;;;;;;;58.10;30.40;;;1.70;91.90;;;;;;5111284;28;20453;-76
2020/12/12 07:09:39;;;;;;;54.63;27.83;;;1.60;92.00;;;;;;5107374;28;20436;-76
2020/12/12 07:12:07;;;;;;;45.53;24.10;;;1.50;92.10;;;;;;5093393;28;20408;-76
2020/12/12 07:14:36;;;;;;;66.53;38.95;;;1.50;92.30;;;;;;5107722;28;20439;-76
2020/12/12 07:17:04;;;;;;;53.05;31.13;;;1.40;92.30;;;;;;5110647;28;20897;-76
2020/12/12 07:19:32;;;;;;;29.95;20.38;;;1.40;92.40;;;;;;5107831;28;20405;-76
2020/12/12 07:22:03;;;;;;;31.23;20.30;;;1.40;92.70;;;;;;5093357;28;20482;-76
2020/12/12 07:24:32;;;;;;;30.38;19.58;;;1.30;92.80;;;;;;5089402;28;20518;-76
2020/12/12 07:26:59;;;;;;;30.35;19.83;;;1.30;92.90;;;;;;5110615;28;20448;-76
2020/12/12 07:29:27;;;;;;;29.25;19.23;;;1.30;92.90;;;;;;5092958;28;20998;-76
2020/12/12 07:31:54;;;;;;;27.52;19.58;;;1.30;92.90;;;;;;5109147;28;20424;-76
2020/12/12 07:34:22;;;;;;;27.77;19.27;;;1.30;92.90;;;;;;5092915;28;20427;-76
2020/12/12 07:36:58;;;;;;;30.13;19.83;;;1.30;93.00;;;;;;5089288;28;20499;-76
2020/12/12 07:39:35;;;;;;;34.67;22.15;;;1.30;93.10;;;;;;5110603;28;20451;-76
2020/12/12 07:42:06;;;;;;;39.22;24.38;;;1.20;93.20;;;;;;5089312;28;20444;-76
2020/12/12 07:44:33;;;;;;;58.58;31.65;;;1.20;93.30;;;;;;5110374;28;20439;-75
2020/12/12 07:47:10;;;;;;;42.50;26.27;;;1.20;93.30;;;;;;5094202;28;20447;-76
2020/12/12 07:49:40;;;;;;;38.25;24.55;;;1.20;93.30;;;;;;5090292;28;20505;-76
2020/12/12 07:52:09;;;;;;;32.22;21.52;;;1.20;93.40;;;;;;5083826;28;20531;-76
2020/12/12 07:54:44;;;;;;;32.83;22.25;;;1.20;93.40;;;;;;5110695;28;20461;-76
2020/12/12 07:57:15;;;;;;;36.53;24.58;;;1.20;93.60;;;;;;5089393;28;20521;-76
2020/12/12 07:59:44;;;;;;;34.15;24.17;;;1.30;93.50;;;;;;5096451;28;20471;-76
2020/12/12 08:02:13;;;;;;;34.37;23.13;;;1.30;93.40;;;;;;5100787;28;20848;-76
2020/12/12 08:04:42;;;;;;;35.55;22.27;;;1.40;93.50;;;;;;5108733;28;20408;-75
2020/12/12 08:07:16;;;;;;;34.35;22.25;;;1.40;93.30;;;;;;5105191;28;20402;-75
2020/12/12 08:09:49;;;;;;;32.08;21.48;;;1.40;93.20;;;;;;5113566;28;20504;-75
2020/12/12 08:12:32;;;;;;;29.97;19.80;;;1.50;93.20;;;;;;5093298;28;20473;-76
2020/12/12 08:15:12;;;;;;;28.30;19.75;;;1.60;92.80;;;;;;5094874;28;20442;-75
2020/12/12 08:17:39;;;;;;;30.13;20.08;;;1.60;92.60;;;;;;5111079;28;20444;-76
2020/12/12 08:20:24;;;;;;;30.85;20.67;;;1.70;92.50;;;;;;5096086;28;20788;-76
2020/12/12 08:22:58;;;;;;;40.58;24.17;;;1.70;92.40;;;;;;5093941;28;20469;-76
2020/12/12 08:25:29;;;;;;;42.10;25.95;;;1.80;92.10;;;;;;5114578;28;20485;-75
2020/12/12 08:27:58;;;;;;;41.53;25.63;;;1.80;91.90;;;;;;5092731;28;20446;-75
2020/12/12 08:30:25;;;;;;;41.13;24.83;;;1.80;91.90;;;;;;5113967;28;20825;-76
2020/12/12 08:32:54;;;;;;;36.90;22.70;;;1.90;92.00;;;;;;5096329;28;20782;-76
2020/12/12 08:35:40;;;;;;;34.07;21.30;;;1.90;92.10;;;;;;5078582;28;20416;-76
2020/12/12 08:38:14;;;;;;;31.38;20.55;;;2.00;92.10;;;;;;5093348;28;20557;-76
2020/12/12 08:40:52;;;;;;;27.33;17.92;;;2.10;91.90;;;;;;5091878;28;20458;-76
2020/12/12 08:43:18;;;;;;;29.60;18.15;;;2.20;91.40;;;;;;5114066;28;20955;-76
2020/12/12 08:45:59;;;;;;;23.38;17.00;;;2.20;91.50;;;;;;5109671;28;21122;-76
2020/12/12 08:48:39;;;;;;;23.10;17.20;;;2.20;91.20;;;;;;5113951;28;20404;-76
2020/12/12 08:51:07;;;;;;;23.88;17.48;;;2.30;91.40;;;;;;5092370;28;20411;-76
2020/12/12 08:53:36;;;;;;;24.77;17.05;;;2.30;91.40;;;;;;5095694;28;20461;-75
2020/12/12 08:56:07;;;;;;;25.77;17.60;;;2.40;91.20;;;;;;5092333;28;20774;-76
2020/12/12 08:58:37;;;;;;;26.10;17.98;;;2.40;90.70;;;;;;5094881;28;20428;-75
2020/12/12 09:01:24;;;;;;;25.38;17.63;;;2.40;90.90;;;;;;5117797;27;20462;-76
2020/12/12 09:03:51;;;;;;;24.42;18.02;;;2.50;90.70;;;;;;5095550;28;20880;-76
2020/12/12 09:06:20;;;;;;;21.70;16.50;;;2.50;90.80;;;;;;5080719;28;20513;-76
2020/12/12 09:08:47;;;;;;;24.05;16.95;;;2.50;90.30;;;;;;5091454;28;20457;-76
2020/12/12 09:11:16;;;;;;;23.05;16.92;;;2.50;90.40;;;;;;5092224;28;20483;-76
2020/12/12 09:13:43;;;;;;;24.42;17.90;;;2.50;90.70;;;;;;5113195;28;20477;-76
2020/12/12 09:16:10;;;;;;;24.83;17.35;;;2.50;90.90;;;;;;5109682;28;20925;-75
2020/12/12 09:18:44;;;;;;;24.13;17.13;;;2.60;90.80;;;;;;5111800;27;20431;-76
2020/12/12 09:21:14;;;;;;;25.05;17.83;;;2.60;90.70;;;;;;5107193;28;20431;-75
2020/12/12 09:23:43;;;;;;;25.88;17.98;;;2.70;90.70;;;;;;5075025;28;20398;-75
2020/12/12 09:26:10;;;;;;;24.58;16.85;;;2.80;90.40;;;;;;5072380;28;20429;-76
2020/12/12 09:28:40;;;;;;;26.42;17.20;;;3.00;89.50;;;;;;5078907;28;20461;-76
2020/12/12 09:31:07;;;;;;;24.95;17.88;;;3.00;89.50;;;;;;5112933;28;20461;-76
2020/12/12 09:33:39;;;;;;;25.52;18.42;;;3.00;89.60;;;;;;5088923;28;20416;-76
2020/12/12 09:36:07;;;;;;;24.73;17.65;;;3.00;90.00;;;;;;5111712;27;20500;-76
2020/12/12 09:38:34;;;;;;;26.80;18.13;;;3.00;90.10;;;;;;5087985;28;20493;-75
2020/12/12 09:41:03;;;;;;;23.63;17.10;;;3.10;90.10;;;;;;5117061;27;20400;-76
2020/12/12 09:43:36;;;;;;;26.02;17.83;;;3.20;89.00;;;;;;5091239;28;20518;-76
2020/12/12 09:46:02;;;;;;;23.88;16.65;;;3.10;89.50;;;;;;5094225;28;20743;-76
2020/12/12 09:48:29;;;;;;;21.95;15.98;;;3.20;88.00;;;;;;5108528;28;20435;-76
2020/12/12 09:50:55;;;;;;;22.97;16.70;;;3.10;88.20;;;;;;5110997;28;20421;-76
2020/12/12 09:53:22;;;;;;;23.85;16.60;;;3.10;89.50;;;;;;5107845;28;20490;-76
2020/12/12 09:55:53;;;;;;;21.92;16.40;;;3.10;89.80;;;;;;5093407;28;20444;-76
2020/12/12 09:58:20;;;;;;;24.17;16.38;;;3.20;89.50;;;;;;5090229;28;20489;-76
2020/12/12 10:00:51;;;;;;;24.17;17.17;;;3.20;90.00;;;;;;5130281;27;20402;-76
2020/12/12 10:03:20;;;;;;;22.60;15.60;;;3.20;87.90;;;;;;5115246;27;20400;-75
2020/12/12 10:05:46;;;;;;;22.63;15.65;;;3.20;87.80;;;;;;5093178;28;20481;-76
2020/12/12 10:08:13;;;;;;;23.10;16.08;;;3.30;87.70;;;;;;5111190;28;20412;-76
2020/12/12 10:10:42;;;;;;;22.15;15.95;;;3.30;87.40;;;;;;5089663;28;20407;-75
2020/12/12 10:13:08;;;;;;;21.50;15.63;;;3.30;88.20;;;;;;5093347;28;20416;-75
2020/12/12 10:15:37;;;;;;;23.75;15.77;;;3.20;86.90;;;;;;5085194;28;20515;-76
2020/12/12 10:18:03;;;;;;;22.00;15.48;;;3.30;89.00;;;;;;5093433;28;20472;-76
2020/12/12 10:20:32;;;;;;;22.08;15.73;;;3.40;88.00;;;;;;5107676;28;20764;-76
2020/12/12 10:23:00;;;;;;;20.17;15.53;;;3.40;87.50;;;;;;5110981;28;20492;-78
2020/12/12 10:25:27;;;;;;;20.33;15.20;;;3.40;87.20;;;;;;5089797;28;20439;-76
2020/12/12 10:28:09;;;;;;;23.00;15.10;;;3.40;87.10;;;;;;5094322;28;20404;-76
2020/12/12 10:30:36;;;;;;;21.37;15.27;;;3.50;86.30;;;;;;5107617;28;20427;-76
2020/12/12 10:33:03;;;;;;;21.08;14.77;;;3.40;86.40;;;;;;5091795;28;20444;-76
2020/12/12 10:35:30;;;;;;;20.40;15.52;;;3.30;87.50;;;;;;5093477;28;20419;-76
2020/12/12 10:37:59;;;;;;;20.83;15.43;;;3.40;88.30;;;;;;5110594;28;20458;-76
2020/12/12 10:41:03;;;;;;;22.38;14.90;;;3.40;88.40;;;;;;5089355;28;20477;-76
2020/12/12 10:43:19;;;;;;;19.42;14.32;;;3.50;87.50;;;;;;5105757;28;20412;-76
2020/12/12 10:45:48;;;;;;;23.88;15.43;;;3.40;86.60;;;;;;5089134;28;20408;-76
2020/12/12 10:48:15;;;;;;;20.58;15.48;;;3.40;86.40;;;;;;5091666;28;20976;-76
2020/12/12 10:50:41;;;;;;;20.55;14.45;;;3.40;86.10;;;;;;5086286;28;20494;-76
2020/12/12 10:53:08;;;;;;;18.33;13.83;;;3.50;85.90;;;;;;5096542;28;20744;-76
2020/12/12 10:55:34;;;;;;;19.05;13.88;;;3.80;84.50;;;;;;5092544;28;20900;-76
2020/12/12 10:58:01;;;;;;;21.00;14.70;;;3.80;83.10;;;;;;5073679;28;20457;-76
2020/12/12 11:00:39;;;;;;;20.20;13.73;;;3.80;83.50;;;;;;5106039;28;20518;-76
2020/12/12 11:03:07;;;;;;;17.70;13.82;;;3.80;83.30;;;;;;5086346;28;20465;-76
2020/12/12 11:05:35;;;;;;;18.13;13.77;;;3.80;82.70;;;;;;5110482;28;20404;-76
2020/12/12 11:08:01;;;;;;;20.77;14.63;;;3.70;83.80;;;;;;5088792;28;20412;-76
2020/12/12 11:10:28;;;;;;;19.60;14.63;;;3.50;85.90;;;;;;5092660;28;20516;-76
2020/12/12 11:12:55;;;;;;;21.90;15.50;;;3.50;86.60;;;;;;5105368;28;20520;-76
2020/12/12 11:15:21;;;;;;;22.08;14.75;;;3.50;87.40;;;;;;5091564;28;20412;-75
2020/12/12 11:17:50;;;;;;;21.08;15.30;;;3.50;86.90;;;;;;5089167;28;20416;-76
2020/12/12 11:20:16;;;;;;;21.98;15.30;;;3.50;87.20;;;;;;5110286;28;20396;-76
2020/12/12 11:22:43;;;;;;;19.03;14.30;;;3.50;87.30;;;;;;5089030;28;20445;-76
2020/12/12 11:25:12;;;;;;;18.98;14.70;;;3.40;87.20;;;;;;5092305;28;20456;-76
2020/12/12 11:27:45;;;;;;;19.13;14.63;;;3.40;87.40;;;;;;5091283;28;20439;-76
2020/12/12 11:30:12;;;;;;;20.52;15.05;;;3.40;88.00;;;;;;5088259;28;20420;-76
2020/12/12 11:32:39;;;;;;;19.47;14.17;;;3.30;88.10;;;;;;5092768;28;20633;-76
2020/12/12 11:40:22;;;;;;;18.60;14.25;;;3.40;87.50;;;;;;5105881;28;20470;-76
2020/12/12 11:48:05;;;;;;;18.95;13.82;;;3.40;87.80;;;;;;5117128;28;20414;-77
2020/12/12 11:50:34;;;;;;;18.38;14.00;;;3.40;87.70;;;;;;5114197;27;20429;-77
2020/12/12 11:53:01;;;;;;;20.73;13.65;;;3.50;87.20;;;;;;5102142;28;20829;-77
2020/12/12 11:55:27;;;;;;;17.65;13.40;;;3.40;86.10;;;;;;5084202;28;20435;-77
2020/12/12 11:57:54;;;;;;;17.90;13.10;;;3.50;85.60;;;;;;5116777;28;20525;-77
2020/12/12 12:00:21;;;;;;;19.38;13.77;;;3.50;85.40;;;;;;5095394;28;20488;-77
2020/12/12 12:02:48;;;;;;;18.63;13.77;;;3.50;85.40;;;;;;5098790;28;20403;-77
2020/12/12 12:05:15;;;;;;;19.27;14.45;;;3.50;85.40;;;;;;5095206;28;20876;-77
2020/12/12 12:07:46;;;;;;;19.23;14.35;;;3.50;85.80;;;;;;5116393;28;20932;-77
2020/12/12 12:12:42;;;;;;;19.27;14.05;;;3.40;87.70;;;;;;5114434;28;20431;-78
2020/12/12 12:15:14;;;;;;;20.13;14.37;;;3.40;87.90;;;;;;5098151;28;20430;-77
2020/12/12 12:17:40;;;;;;;19.77;14.03;;;3.40;87.60;;;;;;5094779;28;20911;-77
2020/12/12 12:20:08;;;;;;;31.02;24.38;;;3.40;87.20;;;;;;5098572;28;20432;-77
2020/12/12 12:22:37;;;;;;;22.83;15.55;;;3.50;87.40;;;;;;5098450;28;20438;-77
2020/12/12 12:25:05;;;;;;;19.75;13.95;;;3.50;85.90;;;;;;5095476;28;20835;-77
2020/12/12 12:27:33;;;;;;;19.77;13.20;;;3.40;85.60;;;;;;5085295;28;20440;-77
2020/12/12 12:29:59;;;;;;;21.23;14.40;;;3.30;85.90;;;;;;5098096;28;20871;-77
2020/12/12 12:32:28;;;;;;;20.00;15.40;;;3.20;86.90;;;;;;5112612;28;20923;-77
2020/12/12 12:34:57;;;;;;;21.38;15.05;;;3.20;87.30;;;;;;5115580;28;20426;-77
2020/12/12 12:37:25;;;;;;;21.85;15.40;;;3.20;88.10;;;;;;5095019;28;20504;-78
2020/12/12 12:39:51;;;;;;;20.05;15.32;;;3.30;88.00;;;;;;5097671;28;20453;-77
2020/12/12 12:42:23;;;;;;;18.98;14.80;;;3.30;88.10;;;;;;5112772;28;20431;-77
2020/12/12 12:44:52;;;;;;;21.83;15.65;;;3.30;88.30;;;;;;5098198;28;20495;-76
2020/12/12 12:47:22;;;;;;;20.45;14.63;;;3.30;87.50;;;;;;5098366;28;20432;-77
2020/12/12 12:49:48;;;;;;;24.17;14.98;;;3.30;87.20;;;;;;5095867;28;20415;-77
2020/12/12 12:52:15;;;;;;;21.25;15.35;;;3.30;86.90;;;;;;5124288;27;20449;-77
2020/12/12 12:54:41;;;;;;;19.65;14.55;;;3.30;87.40;;;;;;5110688;28;20407;-77
2020/12/12 12:57:12;;;;;;;20.07;14.83;;;3.40;87.70;;;;;;5112981;28;20521;-77